Time;durP1;ratioP1;P1;durP2;ratioP2;P2;SDS_P1;SDS_P2;PMS_P1;PMS_P2;Temp;Humidity;BMP_temperature;BMP_pressure;BME280_temperature;BME280_humidity;BME280_pressure;Samples;Min_cycle;Max_cycle;Signal;HPM_P1;HPM_P2
2022/09/21 00:00:38;;;;;;;;;;;21.40;42.10;;;;;;484306;246;1179;-73
2022/09/21 00:02:39;;;;;;;;;;;21.40;42.20;;;;;;484323;246;1205;-73
2022/09/21 00:04:41;;;;;;;;;;;21.40;42.20;;;;;;484595;246;1124;-73
2022/09/21 00:06:42;;;;;;;;;;;21.40;42.10;;;;;;484507;246;1060;-74
2022/09/21 00:08:44;;;;;;;;;;;21.40;42.10;;;;;;484776;246;2165;-74
2022/09/21 00:10:45;;;;;;;;;;;21.30;42.20;;;;;;484374;246;1000;-74
2022/09/21 00:12:47;;;;;;;;;;;21.30;42.20;;;;;;484445;246;1020;-74
2022/09/21 00:14:48;;;;;;;;;;;21.30;42.20;;;;;;484325;246;1345;-74
2022/09/21 00:16:49;;;;;;;;;;;21.40;42.20;;;;;;484447;246;1167;-74
2022/09/21 00:18:50;;;;;;;;;;;21.40;42.20;;;;;;484323;246;1171;-73
2022/09/21 00:20:52;;;;;;;;;;;21.40;42.20;;;;;;484300;246;1158;-73
2022/09/21 00:22:53;;;;;;;;;;;21.40;42.10;;;;;;484445;246;1100;-74
2022/09/21 00:24:55;;;;;;;;;;;21.30;42.10;;;;;;484558;246;1179;-74
2022/09/21 00:26:56;;;;;;;;;;;21.40;42.20;;;;;;484398;246;1437;-73
2022/09/21 00:28:57;;;;;;;;;;;21.30;42.20;;;;;;484586;246;2156;-73
2022/09/21 00:30:59;;;;;;;;;;;21.30;42.20;;;;;;484288;246;1121;-73
2022/09/21 00:33:00;;;;;;;;;;;21.30;42.10;;;;;;484846;246;1105;-74
2022/09/21 00:35:02;;;;;;;;;;;21.40;42.20;;;;;;484333;246;1033;-73
2022/09/21 00:37:03;;;;;;;;;;;21.40;42.00;;;;;;484499;242;1178;-73
2022/09/21 00:39:05;;;;;;;;;;;21.50;41.80;;;;;;484480;246;1000;-73
2022/09/21 00:41:06;;;;;;;;;;;21.50;41.80;;;;;;484574;246;1194;-73
2022/09/21 00:43:07;;;;;;;;;;;21.50;41.70;;;;;;484325;246;1044;-73
2022/09/21 00:45:19;;;;;;;;;;;21.50;41.60;;;;;;484331;246;1094;-73
2022/09/21 00:47:10;;;;;;;;;;;21.60;41.50;;;;;;483598;246;1494;-73
2022/09/21 00:49:11;;;;;;;;;;;21.60;41.50;;;;;;484334;246;2156;-73
2022/09/21 00:51:13;;;;;;;;;;;21.50;41.50;;;;;;484319;246;1199;-73
2022/09/21 00:53:15;;;;;;;;;;;21.50;41.40;;;;;;484337;246;1233;-73
2022/09/21 00:55:16;;;;;;;;;;;21.50;41.40;;;;;;484444;246;1020;-73
2022/09/21 00:57:20;;;;;;;;;;;21.50;41.30;;;;;;484319;246;1046;-73
2022/09/21 00:59:19;;;;;;;;;;;21.60;41.30;;;;;;484266;246;1495;-73
2022/09/21 01:01:21;;;;;;;;;;;21.60;41.30;;;;;;484361;246;1167;-74
2022/09/21 01:03:22;;;;;;;;;;;21.60;41.30;;;;;;484317;246;1150;-74
2022/09/21 01:05:23;;;;;;;;;;;21.60;41.30;;;;;;484306;246;1199;-73
2022/09/21 01:07:25;;;;;;;;;;;21.60;41.20;;;;;;484539;246;1132;-73
2022/09/21 01:09:26;;;;;;;;;;;21.50;41.20;;;;;;484373;246;2176;-73
2022/09/21 01:11:28;;;;;;;;;;;21.50;41.20;;;;;;484407;246;1139;-73
2022/09/21 01:13:29;;;;;;;;;;;21.60;41.10;;;;;;484421;242;1165;-73
2022/09/21 01:15:30;;;;;;;;;;;21.60;41.10;;;;;;484289;246;1296;-73
2022/09/21 01:17:32;;;;;;;;;;;21.60;41.10;;;;;;484303;246;1167;-73
2022/09/21 01:19:33;;;;;;;;;;;21.60;41.00;;;;;;484377;246;1179;-73
2022/09/21 01:21:34;;;;;;;;;;;21.50;41.00;;;;;;484299;246;1124;-74
2022/09/21 01:23:37;;;;;;;;;;;21.60;41.10;;;;;;484415;246;1187;-74
2022/09/21 01:25:37;;;;;;;;;;;21.60;41.10;;;;;;484223;246;1392;-73
2022/09/21 01:27:38;;;;;;;;;;;21.50;41.00;;;;;;484513;246;1145;-74
2022/09/21 01:29:40;;;;;;;;;;;21.50;41.00;;;;;;484296;246;2200;-74
2022/09/21 01:31:41;;;;;;;;;;;21.50;41.00;;;;;;484686;246;1239;-74
2022/09/21 01:33:42;;;;;;;;;;;21.50;41.00;;;;;;484434;246;1183;-74
2022/09/21 01:35:44;;;;;;;;;;;21.50;41.00;;;;;;484304;246;1278;-74
2022/09/21 01:37:45;;;;;;;;;;;21.50;41.00;;;;;;484499;243;1157;-74
2022/09/21 01:39:46;;;;;;;;;;;21.50;40.90;;;;;;484433;242;1105;-73
2022/09/21 01:41:48;;;;;;;;;;;21.50;40.90;;;;;;484429;246;1185;-73
2022/09/21 01:43:49;;;;;;;;;;;21.60;40.80;;;;;;484384;246;1089;-73
2022/09/21 01:45:51;;;;;;;;;;;21.50;40.70;;;;;;484301;246;1239;-73
2022/09/21 01:47:52;;;;;;;;;;;21.60;40.80;;;;;;484338;246;1026;-73
2022/09/21 01:49:53;;;;;;;;;;;21.60;40.70;;;;;;484631;246;2187;-73
2022/09/21 01:51:56;;;;;;;;;;;21.60;40.70;;;;;;484312;246;1072;-73
2022/09/21 01:53:56;;;;;;;;;;;21.70;40.60;;;;;;484254;246;1494;-73
2022/09/21 01:55:57;;;;;;;;;;;21.70;40.50;;;;;;484315;246;1076;-74
2022/09/21 01:57:59;;;;;;;;;;;21.70;40.40;;;;;;484311;246;1169;-73
2022/09/21 02:00:00;;;;;;;;;;;21.70;40.40;;;;;;484580;246;1161;-73
2022/09/21 02:02:01;;;;;;;;;;;21.60;40.40;;;;;;484576;246;1204;-73
2022/09/21 02:04:03;;;;;;;;;;;21.60;40.40;;;;;;484675;246;1143;-73
2022/09/21 02:06:04;;;;;;;;;;;21.60;40.40;;;;;;484394;246;1126;-73
2022/09/21 02:08:05;;;;;;;;;;;21.60;40.40;;;;;;484351;246;1176;-73
2022/09/21 02:10:07;;;;;;;;;;;21.60;40.30;;;;;;484272;242;2188;-74
2022/09/21 02:12:08;;;;;;;;;;;21.60;40.30;;;;;;484344;246;1173;-74
2022/09/21 02:14:09;;;;;;;;;;;21.70;40.30;;;;;;484375;246;1157;-73
2022/09/21 02:16:11;;;;;;;;;;;21.60;40.20;;;;;;484305;246;1178;-73
2022/09/21 02:18:13;;;;;;;;;;;21.70;40.20;;;;;;484570;246;1231;-73
2022/09/21 02:20:16;;;;;;;;;;;21.70;40.20;;;;;;484429;246;1318;-73
2022/09/21 02:22:16;;;;;;;;;;;21.60;40.10;;;;;;484177;246;1437;-73
2022/09/21 02:24:20;;;;;;;;;;;21.60;40.30;;;;;;484367;246;1330;-73
2022/09/21 02:26:19;;;;;;;;;;;21.60;40.20;;;;;;484058;246;1519;-73
2022/09/21 02:28:20;;;;;;;;;;;21.60;40.10;;;;;;484519;246;1257;-73
2022/09/21 02:30:21;;;;;;;;;;;21.60;40.00;;;;;;484314;246;2203;-73
2022/09/21 02:32:23;;;;;;;;;;;21.60;40.00;;;;;;484467;246;1157;-73
2022/09/21 02:34:24;;;;;;;;;;;21.60;40.00;;;;;;484300;246;1184;-73
2022/09/21 02:36:28;;;;;;;;;;;21.60;39.90;;;;;;484481;246;1133;-73
2022/09/21 02:38:27;;;;;;;;;;;21.70;39.90;;;;;;484494;246;1469;-73
2022/09/21 02:40:29;;;;;;;;;;;21.60;40.00;;;;;;484560;246;1126;-73
2022/09/21 02:42:30;;;;;;;;;;;21.60;39.90;;;;;;484335;246;1220;-73
2022/09/21 02:44:32;;;;;;;;;;;21.60;39.90;;;;;;484581;246;1124;-73
2022/09/21 02:46:33;;;;;;;;;;;21.60;39.80;;;;;;484331;246;1181;-74
2022/09/21 02:48:34;;;;;;;;;;;21.60;39.80;;;;;;484353;246;1042;-74
2022/09/21 02:50:36;;;;;;;;;;;21.60;39.80;;;;;;484495;246;2212;-73
2022/09/21 02:52:37;;;;;;;;;;;21.60;39.80;;;;;;484428;246;1031;-74
2022/09/21 02:54:38;;;;;;;;;;;21.60;39.80;;;;;;484396;246;1067;-74
2022/09/21 02:56:40;;;;;;;;;;;21.60;39.80;;;;;;484342;246;1126;-73
2022/09/21 02:58:41;;;;;;;;;;;21.60;39.80;;;;;;484341;246;1015;-73
2022/09/21 03:00:42;;;;;;;;;;;21.60;39.80;;;;;;484335;246;1095;-73
2022/09/21 03:02:44;;;;;;;;;;;21.60;39.80;;;;;;484596;246;1192;-73
2022/09/21 03:04:46;;;;;;;;;;;21.60;39.70;;;;;;484311;246;1214;-73
2022/09/21 03:06:47;;;;;;;;;;;21.60;39.70;;;;;;484661;246;1408;-73
2022/09/21 03:08:48;;;;;;;;;;;21.60;39.60;;;;;;484594;246;1197;-73
2022/09/21 03:10:49;;;;;;;;;;;21.60;39.70;;;;;;484342;246;2160;-73
2022/09/21 03:12:51;;;;;;;;;;;21.60;39.70;;;;;;484358;246;1177;-73
2022/09/21 03:14:52;;;;;;;;;;;21.60;39.70;;;;;;484508;246;1137;-74
2022/09/21 03:16:54;;;;;;;;;;;21.60;39.70;;;;;;484644;246;1170;-73
2022/09/21 03:18:55;;;;;;;;;;;21.50;39.70;;;;;;484365;243;1213;-73
2022/09/21 03:20:56;;;;;;;;;;;21.50;39.70;;;;;;484474;246;1336;-73
2022/09/21 03:22:58;;;;;;;;;;;21.60;39.60;;;;;;484364;246;1263;-73
2022/09/21 03:24:59;;;;;;;;;;;21.60;39.60;;;;;;484285;246;1195;-73
2022/09/21 03:27:00;;;;;;;;;;;21.60;39.60;;;;;;484517;246;1132;-73
2022/09/21 03:29:03;;;;;;;;;;;21.60;39.50;;;;;;484394;246;1301;-73
2022/09/21 03:31:05;;;;;;;;;;;21.50;39.40;;;;;;484349;246;2200;-73
2022/09/21 03:33:07;;;;;;;;;;;21.60;39.40;;;;;;484312;246;1402;-73
2022/09/21 03:35:07;;;;;;;;;;;21.60;39.50;;;;;;484234;246;1585;-73
2022/09/21 03:37:08;;;;;;;;;;;21.60;39.50;;;;;;484308;242;1239;-73
2022/09/21 03:39:10;;;;;;;;;;;21.60;39.30;;;;;;484502;246;1190;-73
2022/09/21 03:41:13;;;;;;;;;;;21.60;39.30;;;;;;484308;246;1232;-74
2022/09/21 03:43:12;;;;;;;;;;;21.60;39.20;;;;;;484227;246;1407;-74
2022/09/21 03:45:14;;;;;;;;;;;21.60;39.10;;;;;;484439;246;1153;-74
2022/09/21 03:47:15;;;;;;;;;;;21.60;39.10;;;;;;484321;246;1187;-74
2022/09/21 03:49:16;;;;;;;;;;;21.70;39.20;;;;;;484589;246;1355;-74
2022/09/21 03:51:18;;;;;;;;;;;21.70;39.10;;;;;;484519;246;2132;-74
2022/09/21 03:53:19;;;;;;;;;;;21.70;39.00;;;;;;484248;242;1177;-74
2022/09/21 03:55:21;;;;;;;;;;;21.70;39.00;;;;;;484376;246;1189;-74
2022/09/21 03:57:22;;;;;;;;;;;21.70;38.90;;;;;;484276;246;1170;-74
2022/09/21 03:59:23;;;;;;;;;;;21.70;38.90;;;;;;484566;246;1264;-74
2022/09/21 04:01:24;;;;;;;;;;;21.70;38.90;;;;;;484272;246;1198;-74
2022/09/21 04:03:26;;;;;;;;;;;21.70;38.90;;;;;;484438;246;1131;-73
2022/09/21 04:05:27;;;;;;;;;;;21.70;38.90;;;;;;484332;246;1262;-73
2022/09/21 04:07:28;;;;;;;;;;;21.60;38.90;;;;;;484374;246;1185;-73
2022/09/21 04:09:30;;;;;;;;;;;21.60;38.80;;;;;;484521;246;1149;-73
2022/09/21 04:11:32;;;;;;;;;;;21.60;38.90;;;;;;484360;246;2252;-73
2022/09/21 04:13:33;;;;;;;;;;;21.60;38.90;;;;;;484344;246;1294;-73
2022/09/21 04:15:35;;;;;;;;;;;21.70;38.90;;;;;;484279;246;1475;-73
2022/09/21 04:17:35;;;;;;;;;;;21.60;38.90;;;;;;484409;246;1460;-73
2022/09/21 04:19:36;;;;;;;;;;;21.60;38.80;;;;;;484462;246;1296;-73
2022/09/21 04:21:38;;;;;;;;;;;21.60;38.80;;;;;;484457;242;1291;-73
2022/09/21 04:23:40;;;;;;;;;;;21.60;38.80;;;;;;484535;246;1146;-73
2022/09/21 04:25:41;;;;;;;;;;;21.60;38.90;;;;;;484273;246;1389;-73
2022/09/21 04:27:42;;;;;;;;;;;21.60;38.80;;;;;;484366;246;1188;-73
2022/09/21 04:29:44;;;;;;;;;;;21.60;38.70;;;;;;484351;246;2196;-73
2022/09/21 04:31:45;;;;;;;;;;;21.60;38.70;;;;;;484209;246;1176;-74
2022/09/21 04:33:47;;;;;;;;;;;21.60;38.80;;;;;;484268;246;1265;-74
2022/09/21 04:35:47;;;;;;;;;;;21.60;38.80;;;;;;484203;246;1147;-73
2022/09/21 04:37:49;;;;;;;;;;;21.60;38.70;;;;;;484246;246;1174;-73
2022/09/21 04:39:50;;;;;;;;;;;21.50;38.70;;;;;;484188;246;1122;-73
2022/09/21 04:41:52;;;;;;;;;;;21.60;38.70;;;;;;484219;246;1154;-73
2022/09/21 04:43:53;;;;;;;;;;;21.50;38.70;;;;;;484269;246;1220;-73
2022/09/21 04:45:54;;;;;;;;;;;21.60;38.70;;;;;;484187;246;1151;-73
2022/09/21 04:47:55;;;;;;;;;;;21.60;38.70;;;;;;484435;246;1141;-73
2022/09/21 04:49:57;;;;;;;;;;;21.60;38.60;;;;;;484195;246;2191;-73
2022/09/21 04:51:58;;;;;;;;;;;21.60;38.70;;;;;;484253;246;1174;-73
2022/09/21 04:53:59;;;;;;;;;;;21.60;38.70;;;;;;484221;246;1131;-73
2022/09/21 04:56:01;;;;;;;;;;;21.60;38.70;;;;;;484188;246;1168;-75
2022/09/21 04:58:02;;;;;;;;;;;21.50;38.60;;;;;;484283;243;1252;-74
2022/09/21 05:00:03;;;;;;;;;;;21.50;38.60;;;;;;484394;246;1094;-74
2022/09/21 05:02:05;;;;;;;;;;;21.60;38.50;;;;;;484409;246;1177;-73
2022/09/21 05:04:06;;;;;;;;;;;21.50;38.50;;;;;;484363;246;1124;-73
2022/09/21 05:06:09;;;;;;;;;;;21.60;38.50;;;;;;484238;246;1086;-73
2022/09/21 05:08:09;;;;;;;;;;;21.60;38.40;;;;;;484196;246;1320;-73
2022/09/21 05:10:10;;;;;;;;;;;21.60;38.50;;;;;;484245;246;2183;-73
2022/09/21 05:12:11;;;;;;;;;;;21.70;38.40;;;;;;484441;246;1152;-73
2022/09/21 05:14:13;;;;;;;;;;;21.60;38.40;;;;;;484257;246;1159;-73
2022/09/21 05:16:14;;;;;;;;;;;21.50;38.50;;;;;;484243;246;1133;-73
2022/09/21 05:18:15;;;;;;;;;;;21.50;38.40;;;;;;484252;246;1179;-73
2022/09/21 05:20:17;;;;;;;;;;;21.50;38.50;;;;;;484218;246;1224;-74
2022/09/21 05:22:18;;;;;;;;;;;21.50;38.40;;;;;;484260;246;1129;-74
2022/09/21 05:24:19;;;;;;;;;;;21.50;38.50;;;;;;484322;246;1191;-73
2022/09/21 05:26:21;;;;;;;;;;;21.50;38.50;;;;;;484329;246;1072;-73
2022/09/21 05:28:22;;;;;;;;;;;21.50;38.40;;;;;;484473;246;1167;-73
2022/09/21 05:30:23;;;;;;;;;;;21.50;38.40;;;;;;484263;246;2172;-73
2022/09/21 05:32:25;;;;;;;;;;;21.60;38.40;;;;;;484316;246;1188;-73
2022/09/21 05:34:26;;;;;;;;;;;21.60;38.30;;;;;;484176;246;1206;-73
2022/09/21 05:36:28;;;;;;;;;;;21.60;38.40;;;;;;484264;246;1107;-73
2022/09/21 05:38:29;;;;;;;;;;;21.60;38.40;;;;;;484280;246;1189;-73
2022/09/21 05:40:30;;;;;;;;;;;21.60;38.30;;;;;;484195;246;1156;-73
2022/09/21 05:42:32;;;;;;;;;;;21.60;38.30;;;;;;484323;246;1128;-73
2022/09/21 05:44:33;;;;;;;;;;;21.60;38.40;;;;;;484271;246;1139;-73
2022/09/21 05:46:34;;;;;;;;;;;21.60;38.50;;;;;;484305;246;1069;-73
2022/09/21 05:48:36;;;;;;;;;;;21.50;38.40;;;;;;484300;246;1333;-73
2022/09/21 05:50:37;;;;;;;;;;;21.60;38.40;;;;;;484335;246;2192;-73
2022/09/21 05:52:39;;;;;;;;;;;21.60;38.50;;;;;;483976;246;1114;-73
2022/09/21 05:54:40;;;;;;;;;;;21.60;38.40;;;;;;484174;246;1148;-73
2022/09/21 05:56:41;;;;;;;;;;;21.60;38.50;;;;;;484213;246;1169;-73
2022/09/21 05:58:43;;;;;;;;;;;21.50;38.50;;;;;;484204;246;1237;-73
2022/09/21 06:00:44;;;;;;;;;;;21.60;38.50;;;;;;484195;246;1246;-73
2022/09/21 06:02:45;;;;;;;;;;;21.60;38.50;;;;;;483961;246;1427;-73
2022/09/21 06:04:46;;;;;;;;;;;21.50;38.50;;;;;;484125;246;1210;-73
2022/09/21 06:06:48;;;;;;;;;;;21.60;38.60;;;;;;484123;246;1185;-73
2022/09/21 06:08:49;;;;;;;;;;;21.50;38.60;;;;;;484176;246;1114;-73
2022/09/21 06:10:50;;;;;;;;;;;21.50;38.50;;;;;;484180;246;2148;-73
2022/09/21 06:12:52;;;;;;;;;;;21.60;38.60;;;;;;484297;246;1148;-73
2022/09/21 06:14:55;;;;;;;;;;;21.50;38.60;;;;;;484159;246;1205;-73
2022/09/21 06:16:54;;;;;;;;;;;21.50;38.60;;;;;;484126;246;1430;-74
2022/09/21 06:18:56;;;;;;;;;;;21.50;38.70;;;;;;484427;246;1139;-74
2022/09/21 06:20:57;;;;;;;;;;;21.60;38.70;;;;;;484151;246;1158;-74
2022/09/21 06:22:58;;;;;;;;;;;21.60;38.80;;;;;;484215;246;1252;-74
2022/09/21 06:25:00;;;;;;;;;;;21.50;38.80;;;;;;484130;246;1150;-74
2022/09/21 06:27:01;;;;;;;;;;;21.50;39.10;;;;;;483978;246;1246;-73
2022/09/21 06:29:02;;;;;;;;;;;21.60;39.00;;;;;;484144;246;1313;-73
2022/09/21 06:31:04;;;;;;;;;;;21.50;39.20;;;;;;483964;246;2199;-73
2022/09/21 06:33:05;;;;;;;;;;;21.60;39.20;;;;;;484182;246;1190;-73
2022/09/21 06:35:06;;;;;;;;;;;21.60;39.20;;;;;;484184;246;1202;-73
2022/09/21 06:37:08;;;;;;;;;;;21.60;39.30;;;;;;483853;246;1217;-73
2022/09/21 06:39:09;;;;;;;;;;;21.60;39.30;;;;;;483839;246;1105;-73
2022/09/21 06:41:10;;;;;;;;;;;21.60;39.50;;;;;;483882;246;1195;-73
2022/09/21 06:43:12;;;;;;;;;;;21.60;39.50;;;;;;484155;246;1192;-73
2022/09/21 06:45:13;;;;;;;;;;;21.60;39.60;;;;;;484270;246;1172;-73
2022/09/21 06:47:14;;;;;;;;;;;21.60;39.60;;;;;;484202;246;1165;-73
2022/09/21 06:49:16;;;;;;;;;;;21.70;39.60;;;;;;484189;246;1070;-73
2022/09/21 06:51:19;;;;;;;;;;;21.60;39.60;;;;;;484141;246;2191;-73
2022/09/21 06:53:18;;;;;;;;;;;21.70;39.60;;;;;;483933;246;1490;-73
2022/09/21 06:55:20;;;;;;;;;;;21.60;39.70;;;;;;483947;246;1117;-73
2022/09/21 06:57:22;;;;;;;;;;;21.60;39.80;;;;;;484091;246;1201;-73
2022/09/21 06:59:22;;;;;;;;;;;21.60;39.80;;;;;;483890;246;1475;-73
2022/09/21 07:01:24;;;;;;;;;;;21.60;39.90;;;;;;484050;246;1086;-74
2022/09/21 07:03:25;;;;;;;;;;;21.60;40.00;;;;;;484025;246;1160;-74
2022/09/21 07:05:26;;;;;;;;;;;21.60;40.20;;;;;;483632;246;1110;-74
2022/09/21 07:07:29;;;;;;;;;;;21.50;40.20;;;;;;483709;246;1225;-73
2022/09/21 07:09:29;;;;;;;;;;;21.60;40.30;;;;;;483667;246;1223;-73
2022/09/21 07:11:30;;;;;;;;;;;21.60;40.20;;;;;;483969;246;2200;-73
2022/09/21 07:13:32;;;;;;;;;;;21.60;40.30;;;;;;484068;246;1231;-73
2022/09/21 07:15:33;;;;;;;;;;;21.60;40.50;;;;;;483953;246;1216;-73
2022/09/21 07:17:35;;;;;;;;;;;21.60;40.50;;;;;;483867;246;1149;-73
2022/09/21 07:19:36;;;;;;;;;;;21.60;40.50;;;;;;483950;246;1120;-73
2022/09/21 07:21:37;;;;;;;;;;;21.60;40.70;;;;;;483917;246;1080;-73
2022/09/21 07:23:38;;;;;;;;;;;21.60;40.70;;;;;;484080;246;1141;-73
2022/09/21 07:25:40;;;;;;;;;;;21.70;40.80;;;;;;483990;246;1184;-73
2022/09/21 07:27:41;;;;;;;;;;;21.70;40.80;;;;;;483952;246;1139;-74
2022/09/21 07:29:43;;;;;;;;;;;21.60;40.90;;;;;;483881;246;1163;-74
2022/09/21 07:31:44;;;;;;;;;;;21.60;41.00;;;;;;483833;246;2207;-73
2022/09/21 07:33:46;;;;;;;;;;;21.60;41.00;;;;;;484001;246;1348;-73
2022/09/21 07:35:47;;;;;;;;;;;21.60;41.10;;;;;;483986;246;1149;-73
2022/09/21 07:37:49;;;;;;;;;;;21.70;41.20;;;;;;483872;242;1413;-73
2022/09/21 07:39:50;;;;;;;;;;;21.70;41.10;;;;;;483937;246;1103;-74
2022/09/21 07:41:51;;;;;;;;;;;21.70;41.30;;;;;;483745;246;1196;-74
2022/09/21 07:43:53;;;;;;;;;;;21.70;41.40;;;;;;484011;246;1206;-74
2022/09/21 07:45:54;;;;;;;;;;;21.60;41.40;;;;;;483881;246;1196;-73
2022/09/21 07:47:55;;;;;;;;;;;21.70;41.50;;;;;;484020;246;1256;-73
2022/09/21 07:49:57;;;;;;;;;;;21.70;41.50;;;;;;483927;246;1442;-73
2022/09/21 07:51:58;;;;;;;;;;;21.70;41.50;;;;;;483880;246;2196;-73
2022/09/21 07:53:59;;;;;;;;;;;21.70;41.70;;;;;;483970;246;1280;-73
2022/09/21 07:56:01;;;;;;;;;;;21.70;41.80;;;;;;483757;246;1183;-74
2022/09/21 08:00:21;;;;;;;;;;;21.70;41.70;;;;;;483983;246;1217;-73
2022/09/21 08:02:23;;;;;;;;;;;21.70;41.80;;;;;;483911;242;1147;-74
2022/09/21 08:04:24;;;;;;;;;;;21.80;41.80;;;;;;484157;246;1152;-73
2022/09/21 08:06:25;;;;;;;;;;;21.70;41.80;;;;;;483905;246;1180;-74
2022/09/21 08:08:27;;;;;;;;;;;21.70;41.80;;;;;;483970;246;1137;-73
2022/09/21 08:10:29;;;;;;;;;;;21.70;42.00;;;;;;483854;246;1144;-74
2022/09/21 08:12:29;;;;;;;;;;;21.70;42.10;;;;;;483933;246;2195;-73
2022/09/21 08:14:31;;;;;;;;;;;21.70;42.20;;;;;;483922;246;1168;-73
2022/09/21 08:16:32;;;;;;;;;;;21.70;42.20;;;;;;484092;246;1357;-73
2022/09/21 08:18:33;;;;;;;;;;;21.70;42.20;;;;;;484004;246;1090;-73
2022/09/21 08:20:35;;;;;;;;;;;21.70;42.20;;;;;;484084;246;1168;-74
2022/09/21 08:22:36;;;;;;;;;;;21.70;42.20;;;;;;484095;246;1086;-73
2022/09/21 08:24:39;;;;;;;;;;;21.70;42.30;;;;;;484056;246;1070;-74
2022/09/21 08:26:39;;;;;;;;;;;21.70;42.20;;;;;;483872;246;1471;-73
2022/09/21 08:28:40;;;;;;;;;;;21.70;42.30;;;;;;483932;246;1342;-74
2022/09/21 08:30:41;;;;;;;;;;;21.80;42.30;;;;;;484013;246;1216;-74
2022/09/21 08:32:43;;;;;;;;;;;21.70;42.40;;;;;;484180;246;2195;-73
2022/09/21 08:34:44;;;;;;;;;;;21.80;42.40;;;;;;483966;246;1086;-73
2022/09/21 08:36:45;;;;;;;;;;;21.80;42.50;;;;;;483993;246;1086;-73
2022/09/21 08:38:47;;;;;;;;;;;21.70;42.50;;;;;;484073;246;1069;-73
2022/09/21 08:40:48;;;;;;;;;;;21.70;42.50;;;;;;483969;246;1143;-74
2022/09/21 08:42:49;;;;;;;;;;;21.70;42.50;;;;;;484124;246;1142;-74
2022/09/21 08:44:50;;;;;;;;;;;21.70;42.40;;;;;;483881;246;1125;-73
2022/09/21 08:46:52;;;;;;;;;;;21.70;42.40;;;;;;483946;246;1116;-73
2022/09/21 08:48:53;;;;;;;;;;;21.70;42.40;;;;;;484120;246;1535;-74
2022/09/21 08:50:55;;;;;;;;;;;21.70;42.30;;;;;;483971;246;1182;-74
2022/09/21 08:52:56;;;;;;;;;;;21.70;42.30;;;;;;484009;246;2113;-73
2022/09/21 08:54:57;;;;;;;;;;;21.70;42.40;;;;;;484002;246;1405;-73
2022/09/21 08:56:59;;;;;;;;;;;21.70;42.40;;;;;;483981;246;1112;-73
2022/09/21 08:59:00;;;;;;;;;;;21.70;42.30;;;;;;483981;246;1187;-73
2022/09/21 09:01:01;;;;;;;;;;;21.70;42.40;;;;;;484071;246;1113;-74
2022/09/21 09:03:03;;;;;;;;;;;21.70;42.40;;;;;;483922;246;1086;-73
2022/09/21 09:05:05;;;;;;;;;;;21.70;42.50;;;;;;483938;246;1143;-73
2022/09/21 09:07:06;;;;;;;;;;;21.70;42.40;;;;;;483978;246;1522;-73
2022/09/21 09:09:07;;;;;;;;;;;21.70;42.40;;;;;;483988;246;1095;-73
2022/09/21 09:11:09;;;;;;;;;;;21.70;42.50;;;;;;484086;246;1141;-73
2022/09/21 09:13:10;;;;;;;;;;;21.70;42.50;;;;;;484100;246;2117;-73
2022/09/21 09:15:11;;;;;;;;;;;21.70;42.50;;;;;;484014;246;1147;-73
2022/09/21 09:17:13;;;;;;;;;;;21.80;42.30;;;;;;484091;246;1089;-73
2022/09/21 09:19:14;;;;;;;;;;;21.70;42.30;;;;;;484078;246;1186;-73
2022/09/21 09:21:16;;;;;;;;;;;21.70;42.10;;;;;;484001;246;1155;-73
2022/09/21 09:23:17;;;;;;;;;;;21.70;42.20;;;;;;483930;246;1134;-73
2022/09/21 09:25:18;;;;;;;;;;;21.70;42.30;;;;;;483947;246;1117;-73
2022/09/21 09:27:20;;;;;;;;;;;21.70;42.30;;;;;;483929;246;1179;-73
2022/09/21 09:29:21;;;;;;;;;;;21.70;42.20;;;;;;483890;246;1184;-73
2022/09/21 09:31:23;;;;;;;;;;;21.80;42.20;;;;;;483991;246;1163;-73
2022/09/21 09:33:24;;;;;;;;;;;21.80;42.30;;;;;;483954;246;2184;-74
2022/09/21 09:35:25;;;;;;;;;;;21.80;42.30;;;;;;484030;246;1091;-73
2022/09/21 09:37:26;;;;;;;;;;;21.70;42.40;;;;;;484058;246;1173;-74
2022/09/21 09:39:28;;;;;;;;;;;21.70;42.30;;;;;;484002;246;1088;-73
2022/09/21 09:41:29;;;;;;;;;;;21.70;42.30;;;;;;484028;246;1150;-73
2022/09/21 09:43:30;;;;;;;;;;;21.70;42.40;;;;;;484038;246;1111;-74
2022/09/21 09:45:32;;;;;;;;;;;21.70;42.40;;;;;;484031;246;1117;-74
2022/09/21 09:47:33;;;;;;;;;;;21.70;42.40;;;;;;484043;246;1162;-74
2022/09/21 09:49:34;;;;;;;;;;;21.70;42.30;;;;;;484125;246;1305;-73
2022/09/21 09:51:37;;;;;;;;;;;21.70;42.10;;;;;;483987;246;2192;-73
2022/09/21 09:53:37;;;;;;;;;;;21.70;42.20;;;;;;483928;246;1378;-73
2022/09/21 09:55:38;;;;;;;;;;;21.70;42.10;;;;;;483956;246;1168;-73
2022/09/21 09:57:40;;;;;;;;;;;21.70;42.10;;;;;;483970;246;1117;-73
2022/09/21 09:59:41;;;;;;;;;;;21.70;42.00;;;;;;483935;246;1406;-73
2022/09/21 10:01:42;;;;;;;;;;;21.70;42.00;;;;;;483961;246;1165;-73
2022/09/21 10:03:44;;;;;;;;;;;21.60;42.00;;;;;;483968;246;1098;-74
2022/09/21 10:05:45;;;;;;;;;;;21.70;41.80;;;;;;483856;246;1246;-74
2022/09/21 10:07:46;;;;;;;;;;;21.70;41.80;;;;;;483952;246;1132;-74
2022/09/21 10:09:48;;;;;;;;;;;21.70;41.80;;;;;;484037;246;1176;-74
2022/09/21 10:11:49;;;;;;;;;;;21.70;41.70;;;;;;484001;246;2195;-74
2022/09/21 10:13:50;;;;;;;;;;;21.70;41.80;;;;;;483953;246;1192;-74
2022/09/21 10:15:52;;;;;;;;;;;21.70;41.70;;;;;;483960;246;1307;-73
2022/09/21 10:17:53;;;;;;;;;;;21.70;41.70;;;;;;484035;246;1088;-73
2022/09/21 10:19:54;;;;;;;;;;;21.70;41.60;;;;;;483959;246;1207;-73
2022/09/21 10:21:56;;;;;;;;;;;21.70;41.60;;;;;;483846;246;1228;-73
2022/09/21 10:23:58;;;;;;;;;;;21.70;41.60;;;;;;483896;246;1266;-73
2022/09/21 10:25:58;;;;;;;;;;;21.70;41.70;;;;;;483970;246;1497;-73
2022/09/21 10:28:01;;;;;;;;;;;21.80;41.60;;;;;;483910;246;1161;-73
2022/09/21 10:30:01;;;;;;;;;;;21.80;41.60;;;;;;483677;246;1427;-73
2022/09/21 10:32:02;;;;;;;;;;;21.70;41.60;;;;;;483789;246;2199;-73
2022/09/21 10:34:03;;;;;;;;;;;21.70;41.60;;;;;;483898;246;1174;-73
2022/09/21 10:36:05;;;;;;;;;;;21.70;41.50;;;;;;483976;246;1185;-73
2022/09/21 10:38:06;;;;;;;;;;;21.70;41.40;;;;;;483857;246;1196;-73
2022/09/21 10:40:08;;;;;;;;;;;21.70;41.50;;;;;;483796;246;1130;-73
2022/09/21 10:42:09;;;;;;;;;;;21.70;41.40;;;;;;483456;246;1270;-73
2022/09/21 10:44:10;;;;;;;;;;;21.80;41.30;;;;;;483601;246;1172;-74
2022/09/21 10:46:12;;;;;;;;;;;21.80;41.40;;;;;;483584;246;1113;-73
2022/09/21 10:48:14;;;;;;;;;;;21.80;41.30;;;;;;483919;246;1282;-74
2022/09/21 10:50:14;;;;;;;;;;;21.90;41.30;;;;;;483966;246;1417;-74
2022/09/21 10:52:17;;;;;;;;;;;21.80;41.10;;;;;;483855;246;2207;-73
2022/09/21 10:54:17;;;;;;;;;;;21.80;41.40;;;;;;483781;246;1411;-74
2022/09/21 10:56:18;;;;;;;;;;;21.80;41.30;;;;;;483848;246;1129;-74
2022/09/21 10:58:20;;;;;;;;;;;21.80;41.20;;;;;;483996;246;1138;-74
2022/09/21 11:00:21;;;;;;;;;;;21.90;41.10;;;;;;483903;246;1434;-73
2022/09/21 11:02:22;;;;;;;;;;;21.80;41.00;;;;;;483884;246;1137;-73
2022/09/21 11:04:24;;;;;;;;;;;21.80;41.10;;;;;;483861;246;1156;-74
2022/09/21 11:06:25;;;;;;;;;;;21.90;40.90;;;;;;483642;246;1375;-73
2022/09/21 11:08:26;;;;;;;;;;;21.90;41.00;;;;;;483989;246;1163;-73
2022/09/21 11:10:28;;;;;;;;;;;21.90;41.00;;;;;;484014;246;1091;-73
2022/09/21 11:12:29;;;;;;;;;;;21.90;40.90;;;;;;484139;246;2203;-73
2022/09/21 11:14:30;;;;;;;;;;;21.90;41.00;;;;;;484131;246;1151;-73
2022/09/21 11:16:32;;;;;;;;;;;21.90;40.90;;;;;;483969;246;1088;-73
2022/09/21 11:18:33;;;;;;;;;;;21.90;40.90;;;;;;484012;246;1163;-73
2022/09/21 11:20:34;;;;;;;;;;;21.80;40.90;;;;;;484087;246;1208;-73
2022/09/21 11:22:36;;;;;;;;;;;21.80;40.90;;;;;;484018;246;1121;-74
2022/09/21 11:24:37;;;;;;;;;;;21.80;41.00;;;;;;484147;246;1103;-74
2022/09/21 11:26:39;;;;;;;;;;;21.80;40.90;;;;;;484002;246;1248;-74
2022/09/21 11:28:40;;;;;;;;;;;21.80;40.90;;;;;;484055;246;1552;-74
2022/09/21 11:30:41;;;;;;;;;;;21.80;40.90;;;;;;484054;246;1320;-73
2022/09/21 11:32:43;;;;;;;;;;;21.80;41.00;;;;;;484030;246;2199;-73
2022/09/21 11:34:44;;;;;;;;;;;21.80;40.90;;;;;;484143;246;1120;-74
2022/09/21 11:36:45;;;;;;;;;;;21.80;40.90;;;;;;484049;246;1126;-73
2022/09/21 11:38:47;;;;;;;;;;;21.80;40.80;;;;;;484144;246;1147;-73
2022/09/21 11:40:48;;;;;;;;;;;21.80;40.70;;;;;;483956;246;1116;-73
2022/09/21 11:42:49;;;;;;;;;;;21.80;40.80;;;;;;484132;246;1051;-73
2022/09/21 11:44:51;;;;;;;;;;;21.80;40.70;;;;;;484162;246;1246;-73
2022/09/21 11:46:52;;;;;;;;;;;21.80;40.70;;;;;;483823;246;1490;-74
2022/09/21 11:48:53;;;;;;;;;;;21.80;40.70;;;;;;484200;246;1096;-74
2022/09/21 11:50:55;;;;;;;;;;;21.80;40.70;;;;;;484251;246;1356;-74
2022/09/21 11:52:56;;;;;;;;;;;21.80;40.60;;;;;;484082;246;2207;-74
2022/09/21 11:54:57;;;;;;;;;;;21.80;40.60;;;;;;484092;246;1038;-74
2022/09/21 11:57:00;;;;;;;;;;;21.80;40.60;;;;;;484046;246;1135;-74
2022/09/21 11:59:04;;;;;;;;;;;21.90;40.50;;;;;;484119;246;1964;-74